Time;durP1;ratioP1;P1;durP2;ratioP2;P2;SDS_P1;SDS_P2;PMS_P1;PMS_P2;Temp;Humidity;BMP_temperature;BMP_pressure;BME280_temperature;BME280_humidity;BME280_pressure;Samples;Min_cycle;Max_cycle;Signal;HPM_P1;HPM_P2
2022/12/22 03:26:12;;;;;;;20.50;9.13;;;;;;;;;;4986770;28;20117;-63
2022/12/22 03:28:37;;;;;;;19.00;8.50;;;;;;;;;;4985644;28;20458;-64
2022/12/22 03:31:03;;;;;;;21.55;8.80;;;;;;;;;;4989419;28;20061;-64
2022/12/22 03:33:29;;;;;;;20.35;8.82;;;;;;;;;;4990516;28;20030;-64
2022/12/22 03:35:54;;;;;;;19.25;8.38;;;;;;;;;;4988246;28;20018;-63
2022/12/22 03:38:20;;;;;;;18.83;7.95;;;;;;;;;;4989612;28;20030;-64
2022/12/22 03:40:45;;;;;;;19.67;8.97;;;;;;;;;;4989630;28;20094;-63
2022/12/22 03:48:38;;;;;;;22.02;8.93;;;;;;;;;;4989278;28;20022;-64
2022/12/22 03:51:04;;;;;;;17.75;8.52;;;;;;;;;;4986958;28;20500;-63
2022/12/22 03:53:29;;;;;;;21.87;8.73;;;;;;;;;;4990512;28;20034;-63
2022/12/22 03:55:54;;;;;;;21.33;8.63;;;;;;;;;;4989336;28;20046;-63
2022/12/22 03:58:19;;;;;;;19.08;9.23;;;;;;;;;;4990558;28;20018;-62
2022/12/22 04:00:44;;;;;;;20.93;9.40;;;;;;;;;;4986453;28;20073;-63
2022/12/22 04:03:09;;;;;;;17.87;9.20;;;;;;;;;;4989966;28;20026;-63
2022/12/22 04:05:35;;;;;;;19.03;9.07;;;;;;;;;;4991121;28;20022;-63
2022/12/22 04:08:00;;;;;;;20.70;8.93;;;;;;;;;;4991831;28;20085;-63
2022/12/22 04:13:09;;;;;;;21.88;10.05;;;;;;;;;;4994231;28;20112;-64
2022/12/22 04:15:34;;;;;;;20.65;9.13;;;;;;;;;;4989751;28;20027;-63
2022/12/22 04:17:59;;;;;;;19.45;8.55;;;;;;;;;;4992944;28;20019;-63
2022/12/22 04:20:28;;;;;;;21.77;9.38;;;;;;;;;;4990066;28;20077;-64
2022/12/22 04:22:56;;;;;;;19.92;8.90;;;;;;;;;;4985625;28;20018;-63
2022/12/22 04:25:21;;;;;;;23.70;9.45;;;;;;;;;;4992090;28;20034;-64
2022/12/22 04:27:47;;;;;;;20.45;8.82;;;;;;;;;;4993495;28;20450;-64
2022/12/22 04:30:12;;;;;;;21.25;9.85;;;;;;;;;;4991573;28;20030;-63
2022/12/22 04:32:37;;;;;;;20.55;9.73;;;;;;;;;;4991948;28;20030;-63
2022/12/22 04:35:03;;;;;;;22.67;9.47;;;;;;;;;;4992343;28;20026;-62
2022/12/22 04:37:28;;;;;;;21.38;9.63;;;;;;;;;;4991972;28;20019;-64
2022/12/22 04:39:53;;;;;;;23.63;8.87;;;;;;;;;;4988418;28;20045;-62
2022/12/22 04:42:18;;;;;;;20.57;9.23;;;;;;;;;;4986933;28;20511;-63
2022/12/22 04:44:44;;;;;;;20.88;9.90;;;;;;;;;;4991726;28;20034;-66
2022/12/22 04:47:09;;;;;;;22.43;10.10;;;;;;;;;;4990772;28;20062;-64
2022/12/22 04:49:34;;;;;;;21.85;9.80;;;;;;;;;;4991001;28;20022;-64
2022/12/22 04:51:59;;;;;;;20.70;9.52;;;;;;;;;;4991997;28;20112;-64
2022/12/22 04:54:24;;;;;;;20.40;10.07;;;;;;;;;;4989604;28;20049;-64
2022/12/22 04:56:49;;;;;;;22.43;10.30;;;;;;;;;;4988201;28;20366;-63
2022/12/22 04:59:14;;;;;;;22.88;10.05;;;;;;;;;;4991474;28;20096;-64
2022/12/22 05:01:40;;;;;;;22.23;9.85;;;;;;;;;;4986601;28;20034;-67
2022/12/22 05:04:05;;;;;;;22.47;10.10;;;;;;;;;;4978266;28;20042;-65
2022/12/22 05:06:30;;;;;;;23.35;9.90;;;;;;;;;;4992397;28;20053;-65
2022/12/22 05:08:55;;;;;;;21.38;8.85;;;;;;;;;;4991871;28;20470;-64
2022/12/22 05:11:20;;;;;;;24.03;10.63;;;;;;;;;;4996063;28;20038;-64
2022/12/22 05:13:45;;;;;;;21.23;9.43;;;;;;;;;;4989646;28;20048;-63
2022/12/22 05:16:12;;;;;;;23.60;9.30;;;;;;;;;;4988753;28;20039;-63
2022/12/22 05:18:37;;;;;;;24.60;9.45;;;;;;;;;;4986248;28;20054;-63
2022/12/22 05:21:05;;;;;;;23.45;9.63;;;;;;;;;;4989144;28;20049;-64
2022/12/22 05:23:30;;;;;;;22.75;10.45;;;;;;;;;;4990159;28;20018;-63
2022/12/22 05:25:55;;;;;;;21.23;8.95;;;;;;;;;;4989309;28;20030;-64
2022/12/22 05:28:20;;;;;;;19.52;9.18;;;;;;;;;;4992165;28;20034;-63
2022/12/22 05:30:45;;;;;;;20.33;9.68;;;;;;;;;;4989765;28;20473;-64
2022/12/22 05:33:10;;;;;;;20.05;8.98;;;;;;;;;;4992318;28;20081;-63
2022/12/22 05:35:36;;;;;;;21.42;9.18;;;;;;;;;;4987911;28;20102;-64
2022/12/22 05:38:01;;;;;;;19.87;9.13;;;;;;;;;;4992341;28;20478;-63
2022/12/22 05:40:26;;;;;;;19.92;9.02;;;;;;;;;;4989668;28;20020;-64
2022/12/22 05:42:51;;;;;;;19.23;8.98;;;;;;;;;;4988366;28;20030;-64
2022/12/22 05:45:20;;;;;;;17.60;8.57;;;;;;;;;;4987414;28;20474;-63
2022/12/22 05:47:50;;;;;;;21.45;8.65;;;;;;;;;;4991921;28;20470;-63
2022/12/22 05:50:16;;;;;;;22.83;9.85;;;;;;;;;;4988432;28;20038;-64
2022/12/22 05:52:41;;;;;;;19.35;8.55;;;;;;;;;;4988502;28;20466;-62
2022/12/22 05:55:07;;;;;;;17.30;8.97;;;;;;;;;;4991714;28;20065;-63
2022/12/22 05:57:32;;;;;;;19.83;8.80;;;;;;;;;;4989439;28;20066;-64
2022/12/22 05:59:57;;;;;;;17.88;8.38;;;;;;;;;;4991993;28;20026;-64
2022/12/22 06:02:23;;;;;;;18.73;8.65;;;;;;;;;;4989790;28;20041;-64
2022/12/22 06:04:48;;;;;;;18.60;8.90;;;;;;;;;;4978277;28;20497;-64
2022/12/22 06:07:13;;;;;;;19.73;8.43;;;;;;;;;;4987947;28;20033;-64
2022/12/22 06:09:38;;;;;;;17.55;8.18;;;;;;;;;;4989786;28;20058;-65
2022/12/22 06:12:03;;;;;;;18.67;9.13;;;;;;;;;;4990288;28;20030;-62
2022/12/22 06:14:28;;;;;;;20.50;8.80;;;;;;;;;;4988264;28;20086;-63
2022/12/22 06:16:54;;;;;;;19.37;8.60;;;;;;;;;;4987798;28;20113;-63
2022/12/22 06:19:19;;;;;;;24.05;8.82;;;;;;;;;;4986229;28;20042;-63
2022/12/22 06:21:44;;;;;;;21.38;8.88;;;;;;;;;;4989494;28;20327;-64
2022/12/22 06:24:09;;;;;;;21.37;8.80;;;;;;;;;;4990456;28;20026;-63
2022/12/22 06:26:34;;;;;;;22.13;9.63;;;;;;;;;;4986077;28;20034;-64
2022/12/22 06:28:59;;;;;;;19.27;8.48;;;;;;;;;;4986286;28;20038;-65
2022/12/22 06:31:24;;;;;;;21.35;9.02;;;;;;;;;;4988564;28;20042;-62
2022/12/22 06:33:50;;;;;;;17.75;8.75;;;;;;;;;;4990870;28;20022;-63
2022/12/22 06:36:15;;;;;;;20.40;8.38;;;;;;;;;;4987931;28;20026;-63
2022/12/22 06:38:40;;;;;;;18.15;8.25;;;;;;;;;;4989466;28;20066;-64
2022/12/22 06:41:05;;;;;;;20.23;8.75;;;;;;;;;;4987671;28;20425;-64
2022/12/22 06:43:30;;;;;;;19.98;8.73;;;;;;;;;;4990616;28;20018;-64
2022/12/22 06:45:55;;;;;;;19.08;8.43;;;;;;;;;;4988809;28;20053;-64
2022/12/22 06:48:20;;;;;;;23.43;9.70;;;;;;;;;;4990751;28;20389;-64
2022/12/22 06:50:46;;;;;;;19.30;8.30;;;;;;;;;;4990546;28;20064;-64
2022/12/22 06:53:11;;;;;;;19.65;9.48;;;;;;;;;;4989266;28;20038;-64
2022/12/22 06:55:37;;;;;;;18.58;8.82;;;;;;;;;;4991065;28;20049;-64
2022/12/22 06:58:02;;;;;;;18.80;8.93;;;;;;;;;;4990344;28;20150;-65
2022/12/22 07:00:27;;;;;;;19.63;9.00;;;;;;;;;;4986058;28;20018;-64
2022/12/22 07:02:52;;;;;;;19.33;8.97;;;;;;;;;;4989201;28;20030;-64
2022/12/22 07:05:18;;;;;;;18.77;8.07;;;;;;;;;;4974474;28;20286;-63
2022/12/22 07:07:43;;;;;;;20.70;8.93;;;;;;;;;;4979744;28;20026;-64
2022/12/22 07:10:08;;;;;;;19.33;9.30;;;;;;;;;;4989924;28;20493;-64
2022/12/22 07:12:34;;;;;;;21.63;8.15;;;;;;;;;;4988636;28;20023;-63
2022/12/22 07:14:59;;;;;;;17.95;8.27;;;;;;;;;;4987836;28;20498;-63
2022/12/22 07:17:24;;;;;;;21.95;8.63;;;;;;;;;;4988448;28;20539;-66
2022/12/22 07:19:49;;;;;;;18.57;8.33;;;;;;;;;;4986204;28;20558;-64
2022/12/22 07:22:14;;;;;;;19.52;8.63;;;;;;;;;;4990382;28;20069;-64
2022/12/22 07:24:39;;;;;;;18.40;8.00;;;;;;;;;;4990392;28;20478;-63
2022/12/22 07:27:05;;;;;;;17.27;7.40;;;;;;;;;;4989055;28;20029;-64
2022/12/22 07:29:30;;;;;;;18.05;7.72;;;;;;;;;;4989393;28;20459;-63
2022/12/22 07:31:55;;;;;;;17.60;7.90;;;;;;;;;;4990148;28;20604;-60
2022/12/22 07:34:20;;;;;;;14.63;7.30;;;;;;;;;;4990132;28;20038;-59
2022/12/22 07:36:45;;;;;;;16.83;7.15;;;;;;;;;;4988525;28;20023;-59
2022/12/22 07:39:11;;;;;;;17.85;7.45;;;;;;;;;;4991200;28;20035;-59
2022/12/22 07:44:20;;;;;;;15.23;7.07;;;;;;;;;;4984776;28;20040;-60
2022/12/22 07:46:45;;;;;;;14.63;6.93;;;;;;;;;;4989382;28;20023;-60
2022/12/22 07:51:55;;;;;;;14.90;7.72;;;;;;;;;;4984021;28;20038;-60
2022/12/22 07:54:20;;;;;;;16.38;7.43;;;;;;;;;;4984322;28;20445;-59
2022/12/22 07:56:45;;;;;;;15.03;6.93;;;;;;;;;;4987981;28;20403;-61
2022/12/22 07:59:11;;;;;;;16.30;7.17;;;;;;;;;;4989777;28;20030;-61
2022/12/22 08:01:36;;;;;;;14.90;7.47;;;;;;;;;;4988587;28;20034;-60
2022/12/22 08:04:02;;;;;;;17.10;7.78;;;;;;;;;;4981157;28;20031;-60
2022/12/22 08:06:27;;;;;;;15.13;7.47;;;;;;;;;;4988934;28;20034;-61
2022/12/22 08:08:52;;;;;;;15.97;8.27;;;;;;;;;;4980341;28;20042;-60
2022/12/22 08:11:17;;;;;;;17.40;7.73;;;;;;;;;;4990559;28;20036;-60
2022/12/22 08:13:42;;;;;;;16.80;7.63;;;;;;;;;;4983829;28;20057;-60
2022/12/22 08:16:09;;;;;;;16.73;8.60;;;;;;;;;;4984588;28;20045;-59
2022/12/22 08:18:34;;;;;;;16.58;8.20;;;;;;;;;;4990873;28;20034;-61
2022/12/22 08:21:00;;;;;;;16.90;8.27;;;;;;;;;;4991061;28;20031;-60
2022/12/22 08:23:25;;;;;;;16.98;8.10;;;;;;;;;;4984971;28;20069;-60
2022/12/22 08:25:54;;;;;;;16.70;8.00;;;;;;;;;;4983246;28;20041;-60
2022/12/22 08:28:19;;;;;;;13.85;6.82;;;;;;;;;;4985431;28;20414;-59
2022/12/22 08:30:44;;;;;;;15.27;7.63;;;;;;;;;;4976494;28;20045;-60
2022/12/22 08:33:10;;;;;;;17.40;8.15;;;;;;;;;;4976276;28;20043;-61
2022/12/22 08:35:35;;;;;;;15.40;7.13;;;;;;;;;;4976374;28;20109;-61
2022/12/22 08:38:00;;;;;;;14.27;6.97;;;;;;;;;;4979148;28;20603;-62
2022/12/22 08:40:26;;;;;;;15.23;7.07;;;;;;;;;;4986428;28;20748;-60
2022/12/22 08:42:53;;;;;;;13.82;6.78;;;;;;;;;;4975514;28;20030;-60
2022/12/22 08:45:19;;;;;;;;;;;;;;;;;;4980323;28;20061;-60
2022/12/22 08:47:44;;;;;;;14.32;6.95;;;;;;;;;;4980380;28;19914;-61
2022/12/22 08:50:09;;;;;;;13.93;7.00;;;;;;;;;;4986789;28;20026;-60
2022/12/22 08:52:34;;;;;;;13.70;7.00;;;;;;;;;;4977932;28;20026;-61
2022/12/22 08:54:59;;;;;;;12.88;6.90;;;;;;;;;;4984183;28;20396;-60
2022/12/22 08:57:28;;;;;;;14.23;6.57;;;;;;;;;;4984763;28;20050;-60
2022/12/22 08:59:53;;;;;;;13.77;6.50;;;;;;;;;;4984853;28;20557;-60
2022/12/22 09:02:18;;;;;;;13.73;6.27;;;;;;;;;;4989404;28;20109;-61
2022/12/22 09:04:43;;;;;;;13.50;6.43;;;;;;;;;;4995257;28;20030;-59
2022/12/22 09:07:09;;;;;;;11.65;5.88;;;;;;;;;;4991433;28;20050;-61
2022/12/22 09:09:34;;;;;;;13.07;5.85;;;;;;;;;;4989773;28;20066;-59
2022/12/22 09:12:00;;;;;;;11.60;6.07;;;;;;;;;;4990134;28;20046;-60
2022/12/22 09:14:26;;;;;;;11.85;5.80;;;;;;;;;;4989616;28;20054;-60
2022/12/22 09:16:51;;;;;;;14.00;6.35;;;;;;;;;;4989256;28;20034;-60
2022/12/22 09:19:16;;;;;;;11.73;5.83;;;;;;;;;;4988524;28;20113;-60
2022/12/22 09:21:41;;;;;;;10.07;5.40;;;;;;;;;;4989504;28;20029;-60
2022/12/22 09:24:07;;;;;;;12.17;6.20;;;;;;;;;;4988196;28;20023;-61
2022/12/22 09:26:32;;;;;;;11.07;5.75;;;;;;;;;;4987909;28;20434;-60
2022/12/22 09:28:57;;;;;;;10.88;5.95;;;;;;;;;;4989245;28;20759;-60
2022/12/22 09:31:23;;;;;;;10.70;5.73;;;;;;;;;;4988343;28;20100;-61
2022/12/22 09:33:48;;;;;;;12.00;5.93;;;;;;;;;;4989331;28;20045;-60
2022/12/22 09:36:15;;;;;;;11.40;5.80;;;;;;;;;;4987060;28;20030;-63
2022/12/22 09:38:40;;;;;;;;;;;;;;;;;;4987203;28;20101;-63
2022/12/22 09:41:06;;;;;;;12.35;5.93;;;;;;;;;;4986168;28;20008;-64
2022/12/22 09:43:31;;;;;;;12.05;6.05;;;;;;;;;;4990644;28;20045;-63
2022/12/22 09:45:57;;;;;;;10.75;5.90;;;;;;;;;;4989337;28;20030;-63
2022/12/22 09:48:23;;;;;;;12.93;5.97;;;;;;;;;;4986874;28;20026;-63
2022/12/22 09:50:48;;;;;;;12.90;5.82;;;;;;;;;;4991017;28;20038;-63
2022/12/22 09:53:21;;;;;;;12.13;5.57;;;;;;;;;;4990864;28;20046;-64
2022/12/22 09:55:46;;;;;;;;;;;;;;;;;;4988923;28;20397;-63
2022/12/22 09:58:17;;;;;;;10.98;5.47;;;;;;;;;;4988242;28;20287;-64
2022/12/22 10:00:44;;;;;;;10.35;5.78;;;;;;;;;;4990320;28;20101;-63
2022/12/22 10:03:19;;;;;;;10.68;5.13;;;;;;;;;;4995639;28;20044;-63
2022/12/22 10:05:50;;;;;;;9.07;4.97;;;;;;;;;;5011370;28;20071;-64
2022/12/22 10:08:17;;;;;;;8.55;4.50;;;;;;;;;;5011384;28;20466;-63
2022/12/22 10:10:43;;;;;;;9.77;4.70;;;;;;;;;;4995210;28;20113;-64
2022/12/22 10:13:15;;;;;;;9.05;4.93;;;;;;;;;;4991133;28;20145;-64
2022/12/22 10:15:40;;;;;;;9.20;4.50;;;;;;;;;;4991690;28;20029;-64
2022/12/22 10:18:10;;;;;;;9.40;4.90;;;;;;;;;;4991729;28;20045;-64
2022/12/22 10:20:38;;;;;;;9.18;4.88;;;;;;;;;;4989814;28;20113;-65
2022/12/22 10:23:11;;;;;;;10.25;5.00;;;;;;;;;;4985162;28;20105;-63
2022/12/22 10:25:38;;;;;;;9.20;4.65;;;;;;;;;;4991036;28;20031;-64
2022/12/22 10:28:03;;;;;;;;;;;;;;;;;;4991979;28;20088;-63
2022/12/22 10:30:30;;;;;;;9.75;4.85;;;;;;;;;;4989210;28;20004;-64
2022/12/22 10:33:12;;;;;;;9.82;5.00;;;;;;;;;;4986365;28;20033;-63
2022/12/22 10:35:42;;;;;;;10.70;5.30;;;;;;;;;;4988180;28;20026;-63
2022/12/22 10:38:27;;;;;;;10.32;5.35;;;;;;;;;;4985624;28;20076;-64
2022/12/22 10:40:54;;;;;;;8.88;4.93;;;;;;;;;;4985636;28;20031;-63
2022/12/22 10:43:25;;;;;;;8.65;4.70;;;;;;;;;;4988895;28;20118;-64
2022/12/22 10:45:50;;;;;;;9.50;4.47;;;;;;;;;;4990155;28;20023;-64
2022/12/22 10:48:16;;;;;;;8.75;4.68;;;;;;;;;;4991078;28;20091;-61
2022/12/22 10:50:45;;;;;;;8.30;4.60;;;;;;;;;;4988196;28;20118;-64
2022/12/22 10:53:11;;;;;;;8.65;4.57;;;;;;;;;;4986454;28;20465;-64
2022/12/22 10:55:37;;;;;;;8.48;4.30;;;;;;;;;;4980313;28;20070;-63
2022/12/22 10:58:08;;;;;;;8.48;3.78;;;;;;;;;;4982137;28;20470;-63
2022/12/22 11:00:34;;;;;;;10.25;4.53;;;;;;;;;;4985440;28;20041;-63
2022/12/22 11:03:00;;;;;;;7.90;3.97;;;;;;;;;;4986229;28;20026;-64
2022/12/22 11:05:25;;;;;;;9.13;4.40;;;;;;;;;;4977275;28;20113;-63
2022/12/22 11:07:51;;;;;;;9.75;4.78;;;;;;;;;;4985845;28;20122;-63
2022/12/22 11:10:18;;;;;;;7.97;4.25;;;;;;;;;;4984769;28;20641;-63
2022/12/22 11:12:56;;;;;;;8.88;4.60;;;;;;;;;;4984124;28;20022;-63
2022/12/22 11:15:28;;;;;;;7.80;4.20;;;;;;;;;;4988957;28;20045;-63
2022/12/22 11:18:12;;;;;;;9.13;4.60;;;;;;;;;;4987767;28;20417;-62
2022/12/22 11:20:55;;;;;;;8.45;3.83;;;;;;;;;;4986219;28;20113;-63
2022/12/22 11:23:32;;;;;;;7.03;3.97;;;;;;;;;;4985170;28;20088;-61
2022/12/22 11:26:09;;;;;;;10.95;4.60;;;;;;;;;;4987791;28;20054;-63
2022/12/22 11:28:46;;;;;;;7.22;3.72;;;;;;;;;;4989463;28;20118;-63
2022/12/22 11:31:16;;;;;;;8.15;4.07;;;;;;;;;;4985299;28;20030;-61
2022/12/22 11:34:00;;;;;;;7.40;3.60;;;;;;;;;;4987874;28;20065;-66
2022/12/22 11:36:44;;;;;;;8.43;4.00;;;;;;;;;;4989834;28;20485;-62
2022/12/22 11:39:12;;;;;;;7.63;3.55;;;;;;;;;;4985540;28;20538;-62
2022/12/22 11:42:03;;;;;;;7.25;3.40;;;;;;;;;;4985842;28;20109;-63
2022/12/22 11:44:28;;;;;;;6.72;3.30;;;;;;;;;;4986346;28;20209;-64
2022/12/22 11:47:01;;;;;;;6.97;3.33;;;;;;;;;;4988075;28;20018;-63
2022/12/22 11:49:26;;;;;;;;;;;;;;;;;;4988175;28;20073;-63
2022/12/22 11:51:59;;;;;;;6.55;3.15;;;;;;;;;;4983712;28;19933;-64
2022/12/22 11:54:38;;;;;;;8.00;2.95;;;;;;;;;;4990268;28;20034;-63
2022/12/22 11:57:13;;;;;;;10.18;3.30;;;;;;;;;;4983670;28;20426;-62
2022/12/22 11:59:57;;;;;;;6.72;3.55;;;;;;;;;;4982761;28;20025;-64
2022/12/22 12:02:32;;;;;;;7.20;3.42;;;;;;;;;;4990318;28;20537;-62
2022/12/22 12:04:57;;;;;;;8.25;4.07;;;;;;;;;;4988312;28;20037;-63
2022/12/22 12:07:40;;;;;;;7.38;3.95;;;;;;;;;;4988295;28;20026;-63
2022/12/22 12:10:05;;;;;;;7.47;4.10;;;;;;;;;;4989342;28;20022;-63
2022/12/22 12:12:45;;;;;;;8.27;3.88;;;;;;;;;;4983296;28;20030;-63
2022/12/22 12:15:24;;;;;;;7.72;3.50;;;;;;;;;;4973758;28;20065;-62
2022/12/22 12:17:49;;;;;;;7.10;3.30;;;;;;;;;;4985324;28;20018;-61
2022/12/22 12:20:20;;;;;;;7.95;3.72;;;;;;;;;;4987029;28;20014;-63
2022/12/22 12:22:48;;;;;;;6.85;3.38;;;;;;;;;;4982860;28;20018;-63
2022/12/22 12:25:30;;;;;;;6.38;3.05;;;;;;;;;;4985558;28;20077;-63
2022/12/22 12:28:06;;;;;;;6.38;3.10;;;;;;;;;;4989677;28;20030;-63
2022/12/22 12:30:41;;;;;;;6.80;2.90;;;;;;;;;;4982268;28;20031;-62
2022/12/22 12:33:16;;;;;;;5.85;2.70;;;;;;;;;;4989460;28;20102;-62
2022/12/22 12:35:45;;;;;;;5.93;2.88;;;;;;;;;;4987064;28;20026;-62
2022/12/22 12:38:42;;;;;;;6.57;2.40;;;;;;;;;;4988606;28;20031;-63
2022/12/22 12:41:26;;;;;;;6.57;2.45;;;;;;;;;;4944226;28;20111;-63
2022/12/22 12:43:53;;;;;;;4.25;1.30;;;;;;;;;;4991657;28;20053;-63
2022/12/22 12:46:37;;;;;;;4.05;1.30;;;;;;;;;;4982686;28;20030;-61
2022/12/22 12:49:02;;;;;;;;;;;;;;;;;;4994045;28;20027;-62
2022/12/22 12:51:48;;;;;;;2.67;0.68;;;;;;;;;;4993304;28;19976;-61
2022/12/22 12:54:34;;;;;;;2.63;0.57;;;;;;;;;;4992934;28;20107;-63
2022/12/22 12:57:08;;;;;;;2.03;0.60;;;;;;;;;;4979839;28;20029;-63
2022/12/22 12:59:39;;;;;;;2.00;0.60;;;;;;;;;;4992470;28;20032;-63
2022/12/22 13:02:24;;;;;;;1.88;0.50;;;;;;;;;;5006382;28;20022;-63
2022/12/22 13:05:11;;;;;;;2.83;0.60;;;;;;;;;;4982844;28;20026;-63
2022/12/22 13:07:54;;;;;;;1.58;0.50;;;;;;;;;;4993529;28;20038;-63
2022/12/22 13:10:21;;;;;;;2.60;0.60;;;;;;;;;;4993264;28;20120;-63
2022/12/22 13:12:53;;;;;;;1.77;0.50;;;;;;;;;;4992230;28;20461;-64
2022/12/22 13:15:26;;;;;;;2.42;0.70;;;;;;;;;;4992930;28;20046;-62
2022/12/22 13:17:51;;;;;;;1.77;0.57;;;;;;;;;;4993197;28;20068;-61
2022/12/22 13:20:20;;;;;;;1.95;0.57;;;;;;;;;;4993355;28;20046;-62
2022/12/22 13:22:50;;;;;;;1.40;0.60;;;;;;;;;;4991465;28;20019;-63
2022/12/22 13:25:15;;;;;;;2.03;0.50;;;;;;;;;;4990287;28;20072;-62
2022/12/22 13:27:40;;;;;;;2.92;0.80;;;;;;;;;;4993020;28;20117;-62
2022/12/22 13:30:11;;;;;;;1.40;0.33;;;;;;;;;;4993314;28;20026;-61
2022/12/22 13:32:39;;;;;;;2.60;0.63;;;;;;;;;;4992961;28;20124;-62
2022/12/22 13:35:16;;;;;;;1.65;0.40;;;;;;;;;;4991837;28;20030;-62
2022/12/22 13:37:45;;;;;;;2.92;0.70;;;;;;;;;;4992821;28;20026;-63
2022/12/22 13:40:12;;;;;;;3.63;0.77;;;;;;;;;;4992552;28;20033;-62
2022/12/22 13:42:38;;;;;;;2.03;0.55;;;;;;;;;;4992530;28;20022;-62
2022/12/22 13:45:05;;;;;;;2.22;0.60;;;;;;;;;;4990962;28;20097;-62
2022/12/22 13:47:30;;;;;;;2.95;0.50;;;;;;;;;;4992226;28;20034;-62
2022/12/22 13:49:56;;;;;;;1.77;0.40;;;;;;;;;;4992630;28;20422;-62
2022/12/22 13:52:22;;;;;;;2.50;0.40;;;;;;;;;;4992198;28;20468;-62
2022/12/22 13:54:47;;;;;;;1.45;0.50;;;;;;;;;;4991447;28;20106;-62
2022/12/22 13:57:16;;;;;;;1.60;0.50;;;;;;;;;;4993526;28;20054;-63
2022/12/22 13:59:43;;;;;;;1.80;0.50;;;;;;;;;;5011908;28;20049;-63
2022/12/22 14:02:08;;;;;;;3.20;0.70;;;;;;;;;;5011923;28;20014;-63
2022/12/22 14:04:34;;;;;;;2.85;0.85;;;;;;;;;;5011747;28;20030;-62
2022/12/22 14:07:09;;;;;;;3.78;0.77;;;;;;;;;;4991357;28;20025;-63
2022/12/22 14:09:34;;;;;;;2.50;0.63;;;;;;;;;;4992343;28;20077;-62
2022/12/22 14:12:00;;;;;;;1.77;0.50;;;;;;;;;;4992447;28;20050;-62
2022/12/22 14:14:26;;;;;;;2.45;0.50;;;;;;;;;;4991925;28;20120;-62
2022/12/22 14:16:53;;;;;;;3.28;0.80;;;;;;;;;;4990276;28;20152;-63
2022/12/22 14:19:19;;;;;;;3.47;0.93;;;;;;;;;;4991048;28;20029;-62
2022/12/22 14:21:46;;;;;;;2.58;0.68;;;;;;;;;;4990449;28;20026;-63
2022/12/22 14:24:17;;;;;;;2.00;0.70;;;;;;;;;;4991891;28;20469;-62
2022/12/22 14:26:42;;;;;;;1.65;0.55;;;;;;;;;;4992067;28;20365;-66
2022/12/22 14:29:12;;;;;;;1.90;0.60;;;;;;;;;;4992094;28;20528;-63
2022/12/22 14:31:49;;;;;;;2.75;0.65;;;;;;;;;;4989908;28;20049;-63
2022/12/22 14:34:28;;;;;;;4.50;1.10;;;;;;;;;;4990488;28;20045;-63
2022/12/22 14:36:53;;;;;;;2.30;0.70;;;;;;;;;;4992026;28;20022;-63
2022/12/22 14:39:23;;;;;;;2.53;0.67;;;;;;;;;;4991976;28;20040;-62
2022/12/22 14:41:50;;;;;;;1.88;0.60;;;;;;;;;;4991710;28;20019;-62
2022/12/22 14:44:21;;;;;;;1.92;0.60;;;;;;;;;;4988823;28;20512;-64
2022/12/22 14:47:00;;;;;;;2.28;0.55;;;;;;;;;;4990775;28;20033;-63
2022/12/22 14:49:25;;;;;;;4.18;0.70;;;;;;;;;;4991711;28;20022;-64
2022/12/22 14:51:52;;;;;;;1.97;0.50;;;;;;;;;;4992261;28;20026;-64
2022/12/22 14:54:19;;;;;;;3.30;0.70;;;;;;;;;;4989158;28;20031;-64
2022/12/22 14:56:49;;;;;;;1.15;0.43;;;;;;;;;;4999796;28;20018;-63
2022/12/22 14:59:22;;;;;;;2.33;0.57;;;;;;;;;;5010926;28;20045;-62
2022/12/22 15:02:01;;;;;;;1.95;0.60;;;;;;;;;;5011125;28;20100;-62
2022/12/22 15:04:26;;;;;;;4.13;0.77;;;;;;;;;;5010824;28;20072;-62
2022/12/22 15:07:02;;;;;;;4.70;1.07;;;;;;;;;;4995851;28;20054;-62
2022/12/22 15:09:28;;;;;;;2.28;0.70;;;;;;;;;;4991147;28;20018;-63
2022/12/22 15:11:55;;;;;;;2.30;0.70;;;;;;;;;;4991129;28;20031;-62
2022/12/22 15:14:22;;;;;;;2.72;0.70;;;;;;;;;;4990759;28;20053;-62
2022/12/22 15:16:48;;;;;;;2.22;0.70;;;;;;;;;;4991197;28;20014;-62
2022/12/22 15:19:15;;;;;;;3.83;0.80;;;;;;;;;;4989378;28;20405;-62
2022/12/22 15:21:40;;;;;;;2.47;0.80;;;;;;;;;;4991072;28;20033;-63
2022/12/22 15:24:12;;;;;;;2.85;0.70;;;;;;;;;;4991070;28;20022;-63
2022/12/22 15:26:37;;;;;;;2.33;0.70;;;;;;;;;;4991091;28;20026;-64
2022/12/22 15:29:02;;;;;;;3.50;0.70;;;;;;;;;;4991117;28;20023;-62
2022/12/22 15:31:27;;;;;;;2.67;0.80;;;;;;;;;;4989337;28;20080;-62
2022/12/22 15:33:55;;;;;;;2.65;0.60;;;;;;;;;;4991005;28;20026;-63
2022/12/22 15:36:20;;;;;;;2.53;0.60;;;;;;;;;;4991158;28;20018;-64
2022/12/22 15:38:45;;;;;;;2.95;0.80;;;;;;;;;;4990922;28;20105;-62
2022/12/22 15:41:10;;;;;;;2.05;0.50;;;;;;;;;;4989821;28;20026;-63
2022/12/22 15:43:35;;;;;;;2.22;0.50;;;;;;;;;;4990966;28;20735;-63
2022/12/22 15:46:02;;;;;;;2.17;0.70;;;;;;;;;;4990970;28;20060;-63
2022/12/22 15:48:27;;;;;;;;;;;;;;;;;;4991305;28;20069;-63
2022/12/22 15:50:54;;;;;;;3.47;1.00;;;;;;;;;;4990767;28;19910;-63
2022/12/22 15:53:19;;;;;;;3.28;0.70;;;;;;;;;;4990486;28;20462;-62
2022/12/22 15:55:45;;;;;;;3.80;0.80;;;;;;;;;;4999991;28;20049;-62
2022/12/22 15:58:12;;;;;;;3.22;0.70;;;;;;;;;;5010244;28;20022;-61
2022/12/22 16:00:37;;;;;;;3.08;1.10;;;;;;;;;;5011843;28;20038;-63
2022/12/22 16:03:03;;;;;;;2.60;0.80;;;;;;;;;;5014508;28;20022;-62
2022/12/22 16:05:28;;;;;;;7.50;3.17;;;;;;;;;;5013912;28;20547;-62
2022/12/22 16:07:53;;;;;;;6.05;2.45;;;;;;;;;;4999967;28;20022;-63
2022/12/22 16:10:26;;;;;;;4.05;1.20;;;;;;;;;;4994138;28;20135;-61
2022/12/22 16:12:54;;;;;;;3.55;1.00;;;;;;;;;;4993943;28;20041;-62
2022/12/22 16:15:19;;;;;;;3.95;1.00;;;;;;;;;;4994027;28;20072;-63
2022/12/22 16:17:45;;;;;;;2.97;0.90;;;;;;;;;;4993211;28;20101;-63
2022/12/22 16:20:10;;;;;;;4.88;1.15;;;;;;;;;;4993227;28;20057;-62
2022/12/22 16:22:35;;;;;;;3.22;0.98;;;;;;;;;;4993691;28;20022;-62
2022/12/22 16:25:02;;;;;;;4.38;1.20;;;;;;;;;;4993716;28;20184;-62
2022/12/22 16:27:28;;;;;;;3.65;0.90;;;;;;;;;;4994147;28;20441;-61
2022/12/22 16:29:54;;;;;;;4.20;1.40;;;;;;;;;;4993176;28;20478;-61
2022/12/22 16:32:22;;;;;;;8.00;3.22;;;;;;;;;;4992018;28;20038;-61
2022/12/22 16:34:47;;;;;;;3.08;1.00;;;;;;;;;;4991814;28;20030;-61
2022/12/22 16:37:12;;;;;;;4.13;1.40;;;;;;;;;;4992573;28;20045;-61
2022/12/22 16:39:38;;;;;;;4.35;1.77;;;;;;;;;;4993646;28;20105;-63
2022/12/22 16:42:03;;;;;;;4.70;1.20;;;;;;;;;;4992155;28;20029;-61
2022/12/22 16:44:28;;;;;;;3.33;1.50;;;;;;;;;;4993647;28;20461;-62
2022/12/22 16:46:54;;;;;;;4.17;1.60;;;;;;;;;;4993432;28;20480;-62
2022/12/22 16:49:20;;;;;;;4.40;1.85;;;;;;;;;;4991741;28;20438;-61
2022/12/22 16:51:47;;;;;;;4.03;1.40;;;;;;;;;;4991235;28;20053;-63
2022/12/22 16:54:12;;;;;;;4.57;1.73;;;;;;;;;;4996463;28;20141;-61
2022/12/22 16:56:37;;;;;;;4.93;2.10;;;;;;;;;;4990212;28;20061;-61
2022/12/22 16:59:03;;;;;;;5.28;2.38;;;;;;;;;;4992925;28;20069;-61
2022/12/22 17:01:30;;;;;;;5.93;2.80;;;;;;;;;;4987086;28;20018;-61
2022/12/22 17:03:56;;;;;;;6.32;3.22;;;;;;;;;;4991845;28;20030;-61
2022/12/22 17:06:21;;;;;;;8.40;4.38;;;;;;;;;;4987962;28;20041;-62
2022/12/22 17:08:47;;;;;;;8.57;4.50;;;;;;;;;;4985525;28;20030;-62
2022/12/22 17:11:20;;;;;;;8.33;3.93;;;;;;;;;;4987639;28;20030;-62
2022/12/22 17:13:46;;;;;;;8.57;4.55;;;;;;;;;;4991563;28;20516;-62
2022/12/22 17:16:18;;;;;;;7.75;4.30;;;;;;;;;;4988843;28;20030;-62
2022/12/22 17:18:43;;;;;;;8.95;4.57;;;;;;;;;;4995527;28;20101;-61
2022/12/22 17:21:10;;;;;;;11.60;4.77;;;;;;;;;;4991191;28;20516;-63
2022/12/22 17:23:38;;;;;;;9.00;5.10;;;;;;;;;;4991213;28;20041;-62
2022/12/22 17:26:07;;;;;;;10.65;5.50;;;;;;;;;;4992513;28;20450;-63
2022/12/22 17:28:33;;;;;;;9.90;5.40;;;;;;;;;;4990659;28;20112;-64
2022/12/22 17:30:58;;;;;;;10.23;5.75;;;;;;;;;;4978294;28;20034;-62
2022/12/22 17:33:23;;;;;;;11.60;6.00;;;;;;;;;;4988769;28;20504;-61
2022/12/22 17:35:49;;;;;;;10.70;5.40;;;;;;;;;;4992415;28;20474;-62
2022/12/22 17:38:15;;;;;;;9.03;4.73;;;;;;;;;;4990003;28;20030;-62
2022/12/22 17:40:40;;;;;;;10.80;5.60;;;;;;;;;;4989484;28;20061;-61
2022/12/22 17:43:09;;;;;;;10.77;5.88;;;;;;;;;;4991977;28;20049;-63
2022/12/22 17:45:35;;;;;;;11.85;6.30;;;;;;;;;;4990313;28;20132;-65
2022/12/22 17:48:00;;;;;;;11.13;6.00;;;;;;;;;;4992183;28;20406;-62
2022/12/22 17:50:25;;;;;;;11.60;6.05;;;;;;;;;;4989423;28;20026;-62
2022/12/22 17:52:50;;;;;;;10.00;5.63;;;;;;;;;;5001463;28;20014;-63
2022/12/22 17:55:20;;;;;;;13.37;7.03;;;;;;;;;;5002182;28;20486;-64
2022/12/22 17:57:45;;;;;;;12.13;6.68;;;;;;;;;;4991967;28;20019;-63
2022/12/22 18:00:15;;;;;;;12.60;6.35;;;;;;;;;;4991348;28;20033;-64
2022/12/22 18:02:40;;;;;;;12.40;6.65;;;;;;;;;;4990574;28;20046;-61
2022/12/22 18:05:05;;;;;;;12.68;6.90;;;;;;;;;;4988853;28;20221;-62
2022/12/22 18:07:30;;;;;;;13.20;6.57;;;;;;;;;;4991128;28;20041;-63
2022/12/22 18:09:58;;;;;;;11.52;6.00;;;;;;;;;;4986743;28;20460;-63
2022/12/22 18:12:23;;;;;;;11.60;6.07;;;;;;;;;;4984207;28;20033;-63
2022/12/22 18:14:49;;;;;;;12.02;6.88;;;;;;;;;;4982057;28;20046;-62
2022/12/22 18:17:19;;;;;;;11.68;6.40;;;;;;;;;;4987665;28;20037;-63
2022/12/22 18:19:44;;;;;;;10.93;5.95;;;;;;;;;;4987121;28;20030;-62